sensor_id;sensor_type;location;lat;lon;timestamp;pressure;altitude;pressure_sealevel;temperature;humidity
64908;BME280;69061;52.236;5.188;2023-04-15T00:02:22;100856.31;;;10.89;62.29
64908;BME280;69061;52.236;5.188;2023-04-15T00:04:48;100857.06;;;10.90;60.95
64908;BME280;69061;52.236;5.188;2023-04-15T00:07:15;100857.00;;;10.86;59.60
64908;BME280;69061;52.236;5.188;2023-04-15T00:09:43;100857.75;;;10.83;61.27
64908;BME280;69061;52.236;5.188;2023-04-15T00:12:10;100854.69;;;10.81;59.51
64908;BME280;69061;52.236;5.188;2023-04-15T00:14:36;100863.81;;;10.80;59.87
64908;BME280;69061;52.236;5.188;2023-04-15T00:17:03;100859.97;;;10.77;59.65
64908;BME280;69061;52.236;5.188;2023-04-15T00:19:30;100847.03;;;10.76;59.41
64908;BME280;69061;52.236;5.188;2023-04-15T00:21:58;100853.06;;;10.73;59.75
64908;BME280;69061;52.236;5.188;2023-04-15T00:24:24;100856.09;;;10.71;61.32
64908;BME280;69061;52.236;5.188;2023-04-15T00:26:53;100844.69;;;10.71;59.68
64908;BME280;69061;52.236;5.188;2023-04-15T00:29:20;100850.78;;;10.71;62.37
64908;BME280;69061;52.236;5.188;2023-04-15T00:31:46;100835.97;;;10.70;62.28
64908;BME280;69061;52.236;5.188;2023-04-15T00:34:12;100851.56;;;10.72;61.73
64908;BME280;69061;52.236;5.188;2023-04-15T00:36:39;100854.59;;;10.74;61.59
64908;BME280;69061;52.236;5.188;2023-04-15T00:39:05;100851.94;;;10.74;60.49
64908;BME280;69061;52.236;5.188;2023-04-15T00:41:32;100851.94;;;10.74;62.27
64908;BME280;69061;52.236;5.188;2023-04-15T00:44:00;100853.13;;;10.76;61.11
64908;BME280;69061;52.236;5.188;2023-04-15T00:46:28;100853.53;;;10.78;62.54
64908;BME280;69061;52.236;5.188;2023-04-15T00:48:56;100851.22;;;10.77;61.37
64908;BME280;69061;52.236;5.188;2023-04-15T00:51:22;100858.78;;;10.75;61.06
64908;BME280;69061;52.236;5.188;2023-04-15T00:53:50;100859.16;;;10.73;61.10
64908;BME280;69061;52.236;5.188;2023-04-15T00:56:18;100853.81;;;10.70;62.66
64908;BME280;69061;52.236;5.188;2023-04-15T00:58:46;100863.69;;;10.69;62.39
64908;BME280;69061;52.236;5.188;2023-04-15T01:01:14;100850.75;;;10.68;61.73
64908;BME280;69061;52.236;5.188;2023-04-15T01:03:41;100860.22;;;10.65;61.21
64908;BME280;69061;52.236;5.188;2023-04-15T01:06:07;100854.91;;;10.65;62.91
64908;BME280;69061;52.236;5.188;2023-04-15T01:08:34;100854.47;;;10.63;62.82
64908;BME280;69061;52.236;5.188;2023-04-15T01:11:01;100855.22;;;10.60;62.63
64908;BME280;69061;52.236;5.188;2023-04-15T01:13:29;100857.81;;;10.56;62.15
64908;BME280;69061;52.236;5.188;2023-04-15T01:15:56;100855.13;;;10.53;63.28
64908;BME280;69061;52.236;5.188;2023-04-15T01:18:24;100852.78;;;10.48;62.16
64908;BME280;69061;52.236;5.188;2023-04-15T01:20:51;100857.31;;;10.47;61.87
64908;BME280;69061;52.236;5.188;2023-04-15T01:23:19;100861.50;;;10.48;61.09
64908;BME280;69061;52.236;5.188;2023-04-15T01:25:48;100860.31;;;10.42;61.94
64908;BME280;69061;52.236;5.188;2023-04-15T01:28:15;100854.88;;;10.35;62.34
64908;BME280;69061;52.236;5.188;2023-04-15T01:30:41;100861.00;;;10.35;62.07
64908;BME280;69061;52.236;5.188;2023-04-15T01:33:08;100862.03;;;10.31;63.18
64908;BME280;69061;52.236;5.188;2023-04-15T01:35:35;100867.34;;;10.31;63.10
64908;BME280;69061;52.236;5.188;2023-04-15T01:38:04;100855.22;;;10.33;63.51
64908;BME280;69061;52.236;5.188;2023-04-15T01:40:31;100870.78;;;10.31;63.29
64908;BME280;69061;52.236;5.188;2023-04-15T01:42:59;100868.88;;;10.32;63.35
64908;BME280;69061;52.236;5.188;2023-04-15T01:45:26;100860.84;;;10.28;63.71
64908;BME280;69061;52.236;5.188;2023-04-15T01:47:53;100868.06;;;10.27;63.67
64908;BME280;69061;52.236;5.188;2023-04-15T01:50:19;100870.66;;;10.24;63.97
64908;BME280;69061;52.236;5.188;2023-04-15T01:52:46;100874.50;;;10.26;64.49
64908;BME280;69061;52.236;5.188;2023-04-15T01:55:13;100861.56;;;10.25;63.79
64908;BME280;69061;52.236;5.188;2023-04-15T01:57:39;100871.38;;;10.21;62.84
64908;BME280;69061;52.236;5.188;2023-04-15T02:00:08;100875.94;;;10.20;62.55
64908;BME280;69061;52.236;5.188;2023-04-15T02:02:35;100876.25;;;10.15;62.82
64908;BME280;69061;52.236;5.188;2023-04-15T02:05:02;100870.06;;;10.07;63.76
64908;BME280;69061;52.236;5.188;2023-04-15T02:07:29;100872.72;;;10.07;63.61
64908;BME280;69061;52.236;5.188;2023-04-15T02:09:57;100867.81;;;10.09;64.49
64908;BME280;69061;52.236;5.188;2023-04-15T02:12:23;100865.84;;;10.06;64.29
64908;BME280;69061;52.236;5.188;2023-04-15T02:14:50;100869.66;;;10.05;65.07
64908;BME280;69061;52.236;5.188;2023-04-15T02:17:17;100883.41;;;10.11;64.67
64908;BME280;69061;52.236;5.188;2023-04-15T02:19:44;100873.06;;;10.06;64.75
64908;BME280;69061;52.236;5.188;2023-04-15T02:22:10;100877.56;;;10.02;64.25
64908;BME280;69061;52.236;5.188;2023-04-15T02:24:42;100871.81;;;9.96;65.94
64908;BME280;69061;52.236;5.188;2023-04-15T02:27:10;100883.94;;;9.97;65.91
64908;BME280;69061;52.236;5.188;2023-04-15T02:29:36;100885.44;;;9.94;65.97
64908;BME280;69061;52.236;5.188;2023-04-15T02:32:03;100882.34;;;9.92;66.09
64908;BME280;69061;52.236;5.188;2023-04-15T02:34:31;100880.88;;;9.95;66.03
64908;BME280;69061;52.236;5.188;2023-04-15T02:36:58;100881.59;;;9.92;65.97
64908;BME280;69061;52.236;5.188;2023-04-15T02:39:25;100884.63;;;9.90;67.41
64908;BME280;69061;52.236;5.188;2023-04-15T02:41:51;100892.97;;;9.92;66.90
64908;BME280;69061;52.236;5.188;2023-04-15T02:44:18;100896.00;;;9.91;66.25
64908;BME280;69061;52.236;5.188;2023-04-15T02:46:46;100899.00;;;9.89;66.59
64908;BME280;69061;52.236;5.188;2023-04-15T02:49:15;100887.56;;;9.85;66.64
64908;BME280;69061;52.236;5.188;2023-04-15T02:51:43;100898.94;;;9.86;66.90
64908;BME280;69061;52.236;5.188;2023-04-15T02:54:11;100901.22;;;9.87;68.35
64908;BME280;69061;52.236;5.188;2023-04-15T02:56:39;100911.47;;;9.85;67.91
64908;BME280;69061;52.236;5.188;2023-04-15T02:59:05;100900.47;;;9.87;68.51
64908;BME280;69061;52.236;5.188;2023-04-15T03:01:32;100906.09;;;9.82;67.92
64908;BME280;69061;52.236;5.188;2023-04-15T03:03:58;100913.28;;;9.81;68.67
64908;BME280;69061;52.236;5.188;2023-04-15T03:06:25;100914.41;;;9.80;68.80
64908;BME280;69061;52.236;5.188;2023-04-15T03:08:53;100910.22;;;9.79;68.28
64908;BME280;69061;52.236;5.188;2023-04-15T03:11:21;100921.53;;;9.76;68.76
64908;BME280;69061;52.236;5.188;2023-04-15T03:13:47;100919.94;;;9.71;70.22
64908;BME280;69061;52.236;5.188;2023-04-15T03:16:14;100916.88;;;9.69;70.06
64908;BME280;69061;52.236;5.188;2023-04-15T03:18:40;100927.56;;;9.73;70.09
64908;BME280;69061;52.236;5.188;2023-04-15T03:21:07;100924.41;;;9.67;69.47
64908;BME280;69061;52.236;5.188;2023-04-15T03:23:33;100930.44;;;9.64;69.39
64908;BME280;69061;52.236;5.188;2023-04-15T03:26:02;100931.50;;;9.59;69.68
64908;BME280;69061;52.236;5.188;2023-04-15T03:28:29;100928.84;;;9.59;71.17
64908;BME280;69061;52.236;5.188;2023-04-15T03:30:55;100932.63;;;9.58;70.76
64908;BME280;69061;52.236;5.188;2023-04-15T03:33:22;100939.88;;;9.61;71.10
64908;BME280;69061;52.236;5.188;2023-04-15T03:35:49;100939.47;;;9.59;70.92
64908;BME280;69061;52.236;5.188;2023-04-15T03:38:16;100933.72;;;9.57;70.73
64908;BME280;69061;52.236;5.188;2023-04-15T03:40:42;100937.09;;;9.54;71.55
64908;BME280;69061;52.236;5.188;2023-04-15T03:43:11;100932.19;;;9.56;72.75
64908;BME280;69061;52.236;5.188;2023-04-15T03:45:37;100932.50;;;9.51;71.64
64908;BME280;69061;52.236;5.188;2023-04-15T03:48:04;100936.13;;;9.43;71.52
64908;BME280;69061;52.236;5.188;2023-04-15T03:50:31;100949.47;;;9.47;71.75
64908;BME280;69061;52.236;5.188;2023-04-15T03:52:57;100953.59;;;9.44;71.49
64908;BME280;69061;52.236;5.188;2023-04-15T03:55:24;100947.16;;;9.45;72.59
64908;BME280;69061;52.236;5.188;2023-04-15T03:57:51;100957.34;;;9.43;71.48
64908;BME280;69061;52.236;5.188;2023-04-15T04:00:19;100961.13;;;9.42;72.21
64908;BME280;69061;52.236;5.188;2023-04-15T04:02:45;100958.00;;;9.36;72.72
64908;BME280;69061;52.236;5.188;2023-04-15T04:05:12;100958.06;;;9.40;73.24
64908;BME280;69061;52.236;5.188;2023-04-15T04:07:39;100967.19;;;9.42;72.81
64908;BME280;69061;52.236;5.188;2023-04-15T04:10:06;100960.31;;;9.38;72.67
64908;BME280;69061;52.236;5.188;2023-04-15T04:12:33;100970.50;;;9.36;72.21
64908;BME280;69061;52.236;5.188;2023-04-15T04:14:59;100970.09;;;9.34;72.76
64908;BME280;69061;52.236;5.188;2023-04-15T04:17:27;100971.19;;;9.33;72.67
64908;BME280;69061;52.236;5.188;2023-04-15T04:19:54;100976.06;;;9.31;73.16
64908;BME280;69061;52.236;5.188;2023-04-15T04:22:21;100965.06;;;9.29;72.59
64908;BME280;69061;52.236;5.188;2023-04-15T04:24:48;100978.66;;;9.27;72.61
64908;BME280;69061;52.236;5.188;2023-04-15T04:27:14;100977.47;;;9.24;73.22
64908;BME280;69061;52.236;5.188;2023-04-15T04:29:41;100979.28;;;9.20;73.09
64908;BME280;69061;52.236;5.188;2023-04-15T04:32:07;100986.13;;;9.21;72.93
64908;BME280;69061;52.236;5.188;2023-04-15T04:34:35;100990.59;;;9.17;73.99
64908;BME280;69061;52.236;5.188;2023-04-15T04:37:02;100991.00;;;9.19;73.16
64908;BME280;69061;52.236;5.188;2023-04-15T04:39:28;101001.19;;;9.17;73.32
64908;BME280;69061;52.236;5.188;2023-04-15T04:41:55;100997.03;;;9.16;74.51
64908;BME280;69061;52.236;5.188;2023-04-15T04:44:21;101006.09;;;9.15;74.56
64908;BME280;69061;52.236;5.188;2023-04-15T04:46:48;101010.63;;;9.15;75.34
64908;BME280;69061;52.236;5.188;2023-04-15T04:49:14;101017.44;;;9.16;74.33
64908;BME280;69061;52.236;5.188;2023-04-15T04:51:42;101024.91;;;9.10;73.98
64908;BME280;69061;52.236;5.188;2023-04-15T04:54:09;101024.91;;;9.10;74.34
64908;BME280;69061;52.236;5.188;2023-04-15T04:56:36;101024.06;;;9.06;74.21
64908;BME280;69061;52.236;5.188;2023-04-15T04:59:03;101033.13;;;9.05;74.98
64908;BME280;69061;52.236;5.188;2023-04-15T05:01:31;101031.69;;;9.07;75.26
64908;BME280;69061;52.236;5.188;2023-04-15T05:03:58;101046.81;;;9.07;74.54
64908;BME280;69061;52.236;5.188;2023-04-15T05:06:25;101050.69;;;9.09;75.07
64908;BME280;69061;52.236;5.188;2023-04-15T05:08:53;101049.22;;;9.12;76.26
64908;BME280;69061;52.236;5.188;2023-04-15T05:11:20;101043.47;;;9.10;75.01
64908;BME280;69061;52.236;5.188;2023-04-15T05:13:47;101059.13;;;9.15;74.58
64908;BME280;69061;52.236;5.188;2023-04-15T05:16:14;101062.13;;;9.14;74.64
64908;BME280;69061;52.236;5.188;2023-04-15T05:18:41;101066.22;;;9.11;74.13
64908;BME280;69061;52.236;5.188;2023-04-15T05:21:07;101071.88;;;9.09;74.97
64908;BME280;69061;52.236;5.188;2023-04-15T05:23:34;101069.59;;;9.08;74.44
64908;BME280;69061;52.236;5.188;2023-04-15T05:26:02;101070.44;;;9.12;74.03
64908;BME280;69061;52.236;5.188;2023-04-15T05:28:29;101053.34;;;8.93;74.05
64908;BME280;69061;52.236;5.188;2023-04-15T05:30:55;101085.91;;;9.10;74.93
64908;BME280;69061;52.236;5.188;2023-04-15T05:33:22;101087.94;;;9.17;74.88
64908;BME280;69061;52.236;5.188;2023-04-15T05:35:49;101091.88;;;9.23;75.20
64908;BME280;69061;52.236;5.188;2023-04-15T05:38:15;101097.09;;;9.19;74.21
64908;BME280;69061;52.236;5.188;2023-04-15T05:40:42;101101.28;;;9.20;74.54
64908;BME280;69061;52.236;5.188;2023-04-15T05:43:10;101100.84;;;9.18;74.95
64908;BME280;69061;52.236;5.188;2023-04-15T05:45:36;101105.41;;;9.18;75.97
64908;BME280;69061;52.236;5.188;2023-04-15T05:48:03;101100.84;;;9.18;75.43
64908;BME280;69061;52.236;5.188;2023-04-15T05:50:30;101115.75;;;9.23;75.31
64908;BME280;69061;52.236;5.188;2023-04-15T05:52:56;101123.75;;;9.26;75.53
64908;BME280;69061;52.236;5.188;2023-04-15T05:55:23;101119.63;;;9.29;75.44
64908;BME280;69061;52.236;5.188;2023-04-15T05:57:50;101123.94;;;9.34;76.09
64908;BME280;69061;52.236;5.188;2023-04-15T06:00:18;101140.25;;;9.36;75.73
64908;BME280;69061;52.236;5.188;2023-04-15T06:02:45;101136.56;;;9.40;75.02
64908;BME280;69061;52.236;5.188;2023-04-15T06:05:12;101141.53;;;9.42;75.24
64908;BME280;69061;52.236;5.188;2023-04-15T06:07:39;101145.63;;;9.39;75.35
64908;BME280;69061;52.236;5.188;2023-04-15T06:10:07;101148.34;;;9.43;74.81
64908;BME280;69061;52.236;5.188;2023-04-15T06:12:34;101147.69;;;9.46;75.32
64908;BME280;69061;52.236;5.188;2023-04-15T06:15:01;101161.78;;;9.50;74.75
64908;BME280;69061;52.236;5.188;2023-04-15T06:17:29;101160.31;;;9.53;74.90
64908;BME280;69061;52.236;5.188;2023-04-15T06:19:56;101167.16;;;9.54;74.80
64908;BME280;69061;52.236;5.188;2023-04-15T06:22:22;101177.44;;;9.55;75.65
64908;BME280;69061;52.236;5.188;2023-04-15T06:24:49;101177.16;;;9.60;74.84
64908;BME280;69061;52.236;5.188;2023-04-15T06:27:16;101172.28;;;9.63;75.25
64908;BME280;69061;52.236;5.188;2023-04-15T06:29:43;101177.66;;;9.66;76.37
64908;BME280;69061;52.236;5.188;2023-04-15T06:32:09;101179.28;;;9.71;75.99
64908;BME280;69061;52.236;5.188;2023-04-15T06:34:37;101173.25;;;9.74;75.85
64908;BME280;69061;52.236;5.188;2023-04-15T06:37:04;101180.94;;;9.79;75.26
64908;BME280;69061;52.236;5.188;2023-04-15T06:39:31;101190.59;;;9.87;75.90
64908;BME280;69061;52.236;5.188;2023-04-15T06:41:57;101170.47;;;9.86;75.55
64908;BME280;69061;52.236;5.188;2023-04-15T06:44:24;101201.06;;;10.00;75.50
64908;BME280;69061;52.236;5.188;2023-04-15T06:46:51;101204.72;;;10.11;74.91
64908;BME280;69061;52.236;5.188;2023-04-15T06:49:17;101205.97;;;10.17;74.04
64908;BME280;69061;52.236;5.188;2023-04-15T06:51:45;101196.19;;;10.21;73.95
64908;BME280;69061;52.236;5.188;2023-04-15T06:54:12;101200.81;;;10.24;74.25
64908;BME280;69061;52.236;5.188;2023-04-15T06:56:38;101213.97;;;10.37;73.63
64908;BME280;69061;52.236;5.188;2023-04-15T06:59:06;101222.44;;;10.42;72.53
64908;BME280;69061;52.236;5.188;2023-04-15T07:01:32;101218.69;;;10.47;73.21
64908;BME280;69061;52.236;5.188;2023-04-15T07:03:59;101225.72;;;10.55;72.79
64908;BME280;69061;52.236;5.188;2023-04-15T07:06:26;101232.34;;;10.65;72.80
64908;BME280;69061;52.236;5.188;2023-04-15T07:08:54;101240.34;;;10.69;71.76
64908;BME280;69061;52.236;5.188;2023-04-15T07:11:21;101237.84;;;10.76;71.14
64908;BME280;69061;52.236;5.188;2023-04-15T07:13:48;101242.88;;;10.81;70.64
64908;BME280;69061;52.236;5.188;2023-04-15T07:16:14;101244.09;;;10.87;69.84
64908;BME280;69061;52.236;5.188;2023-04-15T07:18:40;101252.53;;;10.93;69.54
64908;BME280;69061;52.236;5.188;2023-04-15T07:21:07;101258.34;;;10.99;69.93
64908;BME280;69061;52.236;5.188;2023-04-15T07:23:34;101254.69;;;11.07;69.05
64908;BME280;69061;52.236;5.188;2023-04-15T07:26:02;101260.06;;;11.10;69.02
64908;BME280;69061;52.236;5.188;2023-04-15T07:28:28;101257.16;;;11.19;69.30
64908;BME280;69061;52.236;5.188;2023-04-15T07:30:55;101273.34;;;11.34;69.18
64908;BME280;69061;52.236;5.188;2023-04-15T07:33:22;101275.78;;;11.42;68.03
64908;BME280;69061;52.236;5.188;2023-04-15T07:35:49;101281.50;;;11.44;68.12
64908;BME280;69061;52.236;5.188;2023-04-15T07:38:15;101279.00;;;11.55;67.65
64908;BME280;69061;52.236;5.188;2023-04-15T07:40:42;101283.03;;;11.72;66.88
64908;BME280;69061;52.236;5.188;2023-04-15T07:43:10;101282.84;;;11.85;68.04
64908;BME280;69061;52.236;5.188;2023-04-15T07:45:37;101288.47;;;12.06;68.43
64908;BME280;69061;52.236;5.188;2023-04-15T07:48:04;101289.06;;;12.23;66.47
64908;BME280;69061;52.236;5.188;2023-04-15T07:50:32;101297.91;;;12.30;66.18
64908;BME280;69061;52.236;5.188;2023-04-15T07:52:58;101294.69;;;12.48;65.82
64908;BME280;69061;52.236;5.188;2023-04-15T07:55:25;101308.06;;;12.52;64.15
64908;BME280;69061;52.236;5.188;2023-04-15T07:57:52;101302.75;;;12.55;63.83
64908;BME280;69061;52.236;5.188;2023-04-15T08:00:19;101321.50;;;12.62;63.48
64908;BME280;69061;52.236;5.188;2023-04-15T08:02:46;101319.28;;;12.68;63.13
64908;BME280;69061;52.236;5.188;2023-04-15T08:05:13;101322.44;;;12.81;62.48
64908;BME280;69061;52.236;5.188;2023-04-15T08:07:40;101325.97;;;12.89;62.03
64908;BME280;69061;52.236;5.188;2023-04-15T08:10:07;101332.53;;;12.95;62.46
64908;BME280;69061;52.236;5.188;2023-04-15T08:12:34;101328.09;;;13.10;62.65
64908;BME280;69061;52.236;5.188;2023-04-15T08:15:01;101337.00;;;13.25;61.75
64908;BME280;69061;52.236;5.188;2023-04-15T08:17:29;101324.97;;;13.45;61.44
64908;BME280;69061;52.236;5.188;2023-04-15T08:19:55;101331.53;;;13.55;60.95
64908;BME280;69061;52.236;5.188;2023-04-15T08:22:22;101331.28;;;13.78;60.64
64908;BME280;69061;52.236;5.188;2023-04-15T08:24:49;101335.25;;;13.99;60.84
64908;BME280;69061;52.236;5.188;2023-04-15T08:27:15;101337.25;;;14.20;59.23
64908;BME280;69061;52.236;5.188;2023-04-15T08:29:42;101345.72;;;14.33;58.05
64908;BME280;69061;52.236;5.188;2023-04-15T08:32:09;101350.34;;;14.40;57.24
64908;BME280;69061;52.236;5.188;2023-04-15T08:34:37;101349.22;;;14.48;57.46
64908;BME280;69061;52.236;5.188;2023-04-15T08:37:04;101347.03;;;14.64;56.79
64908;BME280;69061;52.236;5.188;2023-04-15T08:39:31;101356.59;;;14.73;56.08
64908;BME280;69061;52.236;5.188;2023-04-15T08:42:00;101352.44;;;14.86;56.56
64908;BME280;69061;52.236;5.188;2023-04-15T08:44:28;101358.97;;;15.10;56.12
64908;BME280;69061;52.236;5.188;2023-04-15T08:46:56;101379.63;;;15.31;55.79
64908;BME280;69061;52.236;5.188;2023-04-15T08:49:25;101381.19;;;15.47;53.88
64908;BME280;69061;52.236;5.188;2023-04-15T08:51:54;101382.72;;;15.55;54.15
64908;BME280;69061;52.236;5.188;2023-04-15T08:54:21;101382.34;;;15.60;52.78
64908;BME280;69061;52.236;5.188;2023-04-15T08:56:48;101381.94;;;15.73;53.51
64908;BME280;69061;52.236;5.188;2023-04-15T08:59:15;101380.03;;;15.88;53.19
64908;BME280;69061;52.236;5.188;2023-04-15T09:01:42;101384.59;;;16.09;52.36
64908;BME280;69061;52.236;5.188;2023-04-15T09:04:10;101390.72;;;16.13;50.81
64908;BME280;69061;52.236;5.188;2023-04-15T09:06:38;101398.00;;;16.09;50.01
64908;BME280;69061;52.236;5.188;2023-04-15T09:09:06;101396.09;;;16.13;50.97
64908;BME280;69061;52.236;5.188;2023-04-15T09:11:33;101401.78;;;16.29;50.80
64908;BME280;69061;52.236;5.188;2023-04-15T09:14:00;101391.03;;;16.37;50.76
64908;BME280;69061;52.236;5.188;2023-04-15T09:16:27;101412.84;;;16.49;50.48
64908;BME280;69061;52.236;5.188;2023-04-15T09:18:53;101409.75;;;16.44;49.15
64908;BME280;69061;52.236;5.188;2023-04-15T09:21:20;101411.69;;;16.40;49.15
64908;BME280;69061;52.236;5.188;2023-04-15T09:23:55;101412.47;;;16.37;49.54
64908;BME280;69061;52.236;5.188;2023-04-15T09:26:31;101416.31;;;16.43;49.28
64908;BME280;69061;52.236;5.188;2023-04-15T09:29:03;101423.56;;;16.49;47.78
64908;BME280;69061;52.236;5.188;2023-04-15T09:31:30;101430.13;;;16.41;48.24
64908;BME280;69061;52.236;5.188;2023-04-15T09:33:57;101427.78;;;16.40;48.25
64908;BME280;69061;52.236;5.188;2023-04-15T09:36:24;101439.31;;;16.37;47.80
64908;BME280;69061;52.236;5.188;2023-04-15T09:38:54;101435.13;;;16.28;47.28
64908;BME280;69061;52.236;5.188;2023-04-15T09:41:21;101436.25;;;16.35;48.72
64908;BME280;69061;52.236;5.188;2023-04-15T09:43:50;101436.56;;;16.55;50.32
64908;BME280;69061;52.236;5.188;2023-04-15T09:46:17;101439.53;;;16.78;50.27
64908;BME280;69061;52.236;5.188;2023-04-15T09:48:44;101452.50;;;17.02;50.02
64908;BME280;69061;52.236;5.188;2023-04-15T09:51:11;101457.41;;;17.17;49.09
64908;BME280;69061;52.236;5.188;2023-04-15T09:53:37;101447.81;;;17.16;47.97
64908;BME280;69061;52.236;5.188;2023-04-15T09:56:04;101452.41;;;17.20;48.39
64908;BME280;69061;52.236;5.188;2023-04-15T09:58:33;101463.47;;;17.29;48.91
64908;BME280;69061;52.236;5.188;2023-04-15T10:01:03;101460.78;;;17.29;47.54
64908;BME280;69061;52.236;5.188;2023-04-15T10:03:31;101463.06;;;17.34;48.17
64908;BME280;69061;52.236;5.188;2023-04-15T10:06:00;101461.81;;;17.49;49.17
64908;BME280;69061;52.236;5.188;2023-04-15T10:08:29;101460.13;;;17.70;48.89
64908;BME280;69061;52.236;5.188;2023-04-15T10:10:57;101472.34;;;17.82;47.63
64908;BME280;69061;52.236;5.188;2023-04-15T10:13:25;101478.41;;;17.93;48.21
64908;BME280;69061;52.236;5.188;2023-04-15T10:15:56;101484.44;;;18.05;47.53
64908;BME280;69061;52.236;5.188;2023-04-15T10:18:26;101477.56;;;18.00;48.49
64908;BME280;69061;52.236;5.188;2023-04-15T10:20:54;101481.81;;;18.01;48.59
64908;BME280;69061;52.236;5.188;2023-04-15T10:23:21;101479.78;;;18.09;48.28
64908;BME280;69061;52.236;5.188;2023-04-15T10:25:51;101489.69;;;18.19;47.40
64908;BME280;69061;52.236;5.188;2023-04-15T10:28:19;101489.31;;;18.17;46.81
64908;BME280;69061;52.236;5.188;2023-04-15T10:30:47;101494.78;;;18.10;47.55
64908;BME280;69061;52.236;5.188;2023-04-15T10:33:14;101492.00;;;18.17;48.26
64908;BME280;69061;52.236;5.188;2023-04-15T10:35:44;101507.31;;;18.24;47.81
64908;BME280;69061;52.236;5.188;2023-04-15T10:38:30;101498.91;;;18.22;47.19
64908;BME280;69061;52.236;5.188;2023-04-15T10:41:11;101503.25;;;18.08;48.38
64908;BME280;69061;52.236;5.188;2023-04-15T10:43:38;101515.13;;;18.11;48.52
64908;BME280;69061;52.236;5.188;2023-04-15T10:46:04;101510.94;;;18.06;47.34
64908;BME280;69061;52.236;5.188;2023-04-15T10:48:32;101512.94;;;17.91;47.20
64908;BME280;69061;52.236;5.188;2023-04-15T10:51:00;101509.91;;;17.89;47.69
64908;BME280;69061;52.236;5.188;2023-04-15T10:53:28;101508.38;;;17.84;48.55
64908;BME280;69061;52.236;5.188;2023-04-15T10:55:56;101515.72;;;17.80;48.11
64908;BME280;69061;52.236;5.188;2023-04-15T10:58:23;101516.13;;;17.79;47.89
64908;BME280;69061;52.236;5.188;2023-04-15T11:00:52;101533.78;;;17.80;48.32
64908;BME280;69061;52.236;5.188;2023-04-15T11:03:35;101532.25;;;17.79;47.79
64908;BME280;69061;52.236;5.188;2023-04-15T11:06:04;101528.88;;;17.67;48.09
64908;BME280;69061;52.236;5.188;2023-04-15T11:08:54;101525.47;;;17.63;48.93
64908;BME280;69061;52.236;5.188;2023-04-15T11:11:21;101523.44;;;17.78;49.58
64908;BME280;69061;52.236;5.188;2023-04-15T11:13:48;101533.00;;;17.83;49.20
64908;BME280;69061;52.236;5.188;2023-04-15T11:16:15;101523.44;;;17.78;48.74
64908;BME280;69061;52.236;5.188;2023-04-15T11:18:52;101530.75;;;17.74;49.43
64908;BME280;69061;52.236;5.188;2023-04-15T11:21:23;101534.09;;;17.89;48.28
64908;BME280;69061;52.236;5.188;2023-04-15T11:23:50;101536.78;;;17.89;48.45
64908;BME280;69061;52.236;5.188;2023-04-15T11:26:16;101539.50;;;17.85;48.67
64908;BME280;69061;52.236;5.188;2023-04-15T11:28:44;101545.66;;;17.86;48.71
64908;BME280;69061;52.236;5.188;2023-04-15T11:31:12;101542.19;;;17.89;47.75
64908;BME280;69061;52.236;5.188;2023-04-15T11:33:46;101547.16;;;17.87;47.27
64908;BME280;69061;52.236;5.188;2023-04-15T11:36:13;101549.84;;;17.94;47.93
64908;BME280;69061;52.236;5.188;2023-04-15T11:38:43;101559.00;;;18.00;47.72
64908;BME280;69061;52.236;5.188;2023-04-15T11:41:10;101567.09;;;18.00;47.61
64908;BME280;69061;52.236;5.188;2023-04-15T11:43:37;101574.28;;;18.14;47.25
64908;BME280;69061;52.236;5.188;2023-04-15T11:46:04;101570.81;;;18.17;47.38
64908;BME280;69061;52.236;5.188;2023-04-15T11:48:32;101564.59;;;18.24;47.90
64908;BME280;69061;52.236;5.188;2023-04-15T11:51:00;101580.03;;;18.13;47.24
64908;BME280;69061;52.236;5.188;2023-04-15T11:53:35;101579.38;;;17.98;46.30
64908;BME280;69061;52.236;5.188;2023-04-15T11:56:04;101580.13;;;18.06;48.07
64908;BME280;69061;52.236;5.188;2023-04-15T11:58:33;101581.97;;;18.12;47.52
64908;BME280;69061;52.236;5.188;2023-04-15T12:01:01;101580.44;;;18.11;47.04
64908;BME280;69061;52.236;5.188;2023-04-15T12:03:29;101595.44;;;18.12;46.90
64908;BME280;69061;52.236;5.188;2023-04-15T12:06:06;101592.72;;;18.16;47.00
64908;BME280;69061;52.236;5.188;2023-04-15T12:09:08;101588.09;;;18.20;46.79
64908;BME280;69061;52.236;5.188;2023-04-15T12:11:42;101594.09;;;18.35;46.80
64908;BME280;69061;52.236;5.188;2023-04-15T12:14:15;101586.78;;;18.39;46.47
64908;BME280;69061;52.236;5.188;2023-04-15T12:16:44;101600.16;;;18.43;46.56
64908;BME280;69061;52.236;5.188;2023-04-15T12:19:13;101597.03;;;18.51;46.89
64908;BME280;69061;52.236;5.188;2023-04-15T12:21:42;101595.91;;;18.49;46.84
64908;BME280;69061;52.236;5.188;2023-04-15T12:24:10;101603.25;;;18.41;46.29
64908;BME280;69061;52.236;5.188;2023-04-15T12:26:44;101600.31;;;18.28;46.00
64908;BME280;69061;52.236;5.188;2023-04-15T12:29:12;101605.03;;;18.13;46.92
64908;BME280;69061;52.236;5.188;2023-04-15T12:31:51;101600.56;;;17.92;47.23
64908;BME280;69061;52.236;5.188;2023-04-15T12:34:25;101609.06;;;17.80;47.38
64908;BME280;69061;52.236;5.188;2023-04-15T12:36:52;101605.97;;;17.85;48.41
64908;BME280;69061;52.236;5.188;2023-04-15T12:39:21;101612.16;;;17.82;47.79
64908;BME280;69061;52.236;5.188;2023-04-15T12:41:49;101624.41;;;17.83;47.73
64908;BME280;69061;52.236;5.188;2023-04-15T12:44:15;101622.91;;;17.75;47.55
64908;BME280;69061;52.236;5.188;2023-04-15T12:46:42;101607.66;;;17.57;48.20
64908;BME280;69061;52.236;5.188;2023-04-15T12:49:08;101636.44;;;17.60;48.58
64908;BME280;69061;52.236;5.188;2023-04-15T12:51:35;101626.78;;;17.70;49.53
64908;BME280;69061;52.236;5.188;2023-04-15T12:54:01;101635.19;;;17.79;48.80
64908;BME280;69061;52.236;5.188;2023-04-15T12:56:28;101639.38;;;17.84;48.04